Time;durP1;ratioP1;P1;durP2;ratioP2;P2;SDS_P1;SDS_P2;PMS_P1;PMS_P2;Temp;Humidity;BMP_temperature;BMP_pressure;BME280_temperature;BME280_humidity;BME280_pressure;Samples;Min_cycle;Max_cycle;Signal;HPM_P1;HPM_P2
2022/08/01 00:00:25;;;;;;;3.67;1.20;;;21.80;90.80;;;;;;5050850;28;20458;-72
2022/08/01 00:02:51;;;;;;;2.80;1.25;;;21.70;91.00;;;;;;5046336;28;20260;-72
2022/08/01 00:05:17;;;;;;;4.75;1.80;;;21.60;91.20;;;;;;5065460;28;20031;-72
2022/08/01 00:07:43;;;;;;;4.10;1.50;;;21.20;91.90;;;;;;5071261;28;20028;-73
2022/08/01 00:10:11;;;;;;;2.20;1.38;;;21.30;91.80;;;;;;5072574;28;20054;-73
2022/08/01 00:12:37;;;;;;;5.10;2.00;;;21.40;91.50;;;;;;5072603;28;20053;-73
2022/08/01 00:15:05;;;;;;;2.92;1.35;;;21.30;91.80;;;;;;5072787;28;20060;-73
2022/08/01 00:17:31;;;;;;;2.83;1.45;;;21.30;92.00;;;;;;5072745;28;20025;-73
2022/08/01 00:19:57;;;;;;;3.15;1.27;;;21.20;92.50;;;;;;5072632;28;20029;-73
2022/08/01 00:22:22;;;;;;;2.80;1.50;;;21.20;91.90;;;;;;5072457;28;20029;-73
2022/08/01 00:24:48;;;;;;;3.58;1.75;;;21.30;92.20;;;;;;5072676;28;20020;-73
2022/08/01 00:27:14;;;;;;;4.43;1.50;;;21.30;91.70;;;;;;5072569;28;20035;-73
2022/08/01 00:29:40;;;;;;;3.50;1.65;;;21.30;91.80;;;;;;5072708;28;20032;-73
2022/08/01 00:32:05;;;;;;;3.83;1.55;;;21.50;91.50;;;;;;5072581;28;20049;-73
2022/08/01 00:34:31;;;;;;;2.53;1.20;;;21.40;91.90;;;;;;5072467;28;20059;-73
2022/08/01 00:36:56;;;;;;;2.85;1.48;;;21.10;92.20;;;;;;5072032;28;20020;-73
2022/08/01 00:39:22;;;;;;;6.00;1.48;;;20.90;92.50;;;;;;5072352;28;20482;-73
2022/08/01 00:41:48;;;;;;;3.78;1.50;;;21.00;92.30;;;;;;5072573;28;20047;-73
2022/08/01 00:44:13;;;;;;;3.22;1.60;;;20.80;92.70;;;;;;5072504;28;20036;-73
2022/08/01 00:46:39;;;;;;;4.03;1.60;;;20.90;92.50;;;;;;5072414;28;20031;-73
2022/08/01 00:49:06;;;;;;;3.33;1.60;;;20.70;92.90;;;;;;5072431;28;20021;-73
2022/08/01 00:51:33;;;;;;;2.78;1.10;;;20.70;93.40;;;;;;5072149;28;20042;-73
2022/08/01 00:54:00;;;;;;;6.15;1.52;;;20.70;93.30;;;;;;5072467;28;20079;-73
2022/08/01 00:56:27;;;;;;;2.88;1.30;;;20.80;92.90;;;;;;5074356;28;20035;-72
2022/08/01 00:58:54;;;;;;;5.32;1.85;;;20.90;92.60;;;;;;5076244;28;20024;-72
2022/08/01 01:01:21;;;;;;;4.60;1.70;;;20.90;92.60;;;;;;5075983;28;20063;-72
2022/08/01 01:03:51;;;;;;;3.30;1.52;;;20.90;92.70;;;;;;5075679;28;20025;-72
2022/08/01 01:06:17;;;;;;;5.40;1.63;;;20.90;92.50;;;;;;5075967;28;20024;-72
2022/08/01 01:09:03;;;;;;;3.08;1.38;;;20.90;92.30;;;;;;5075892;28;20033;-72
2022/08/01 01:11:45;;;;;;;3.47;1.40;;;20.90;92.70;;;;;;5076048;28;20075;-72
2022/08/01 01:14:23;;;;;;;6.78;1.92;;;20.80;92.80;;;;;;5075843;28;20094;-73
2022/08/01 01:16:50;;;;;;;2.30;1.60;;;20.60;93.40;;;;;;5075741;28;20486;-72
2022/08/01 01:19:23;;;;;;;3.20;1.20;;;20.60;92.90;;;;;;5075731;28;20075;-72
2022/08/01 01:22:42;;;;;;;4.53;1.60;;;20.80;92.50;;;;;;5075690;28;20441;-72
2022/08/01 01:25:21;;;;;;;2.63;1.40;;;20.80;92.70;;;;;;4974668;28;20039;-72
2022/08/01 01:28:19;;;;;;;3.13;1.10;;;20.70;92.90;;;;;;5075474;28;20016;-73
2022/08/01 01:30:48;;;;;;;2.88;1.38;;;20.80;92.70;;;;;;5075607;28;20031;-73
2022/08/01 01:33:16;;;;;;;2.92;1.50;;;20.80;92.50;;;;;;5075297;28;20055;-72
2022/08/01 01:35:52;;;;;;;2.92;1.52;;;20.90;92.30;;;;;;5075475;28;20153;-72
2022/08/01 01:38:23;;;;;;;2.47;1.27;;;20.90;92.40;;;;;;5075682;28;20093;-72
2022/08/01 01:40:51;;;;;;;1.83;1.10;;;20.80;92.60;;;;;;5075338;28;20040;-72
2022/08/01 01:43:19;;;;;;;3.15;1.23;;;20.80;92.50;;;;;;5075226;28;20021;-72
2022/08/01 01:45:46;;;;;;;2.45;1.30;;;20.90;92.50;;;;;;5074935;28;20504;-72
2022/08/01 01:48:18;;;;;;;3.35;1.50;;;20.90;92.20;;;;;;5075263;28;20470;-73
2022/08/01 01:50:46;;;;;;;2.42;1.25;;;21.10;91.90;;;;;;5075385;28;20032;-73
2022/08/01 01:53:15;;;;;;;2.67;1.30;;;21.00;92.50;;;;;;5075163;28;20070;-73
2022/08/01 01:55:44;;;;;;;3.92;1.70;;;20.80;92.60;;;;;;5075098;28;20033;-73
2022/08/01 01:58:12;;;;;;;3.13;1.40;;;20.80;92.30;;;;;;5075024;28;20074;-73
2022/08/01 02:00:39;;;;;;;3.28;1.50;;;20.70;92.50;;;;;;5074949;28;20086;-73
2022/08/01 02:03:07;;;;;;;4.60;1.52;;;20.70;92.50;;;;;;5074859;28;20115;-73
2022/08/01 02:05:35;;;;;;;2.60;1.40;;;20.30;93.60;;;;;;5074894;28;20024;-73
2022/08/01 02:08:03;;;;;;;2.55;1.30;;;20.30;93.10;;;;;;5074413;28;20028;-73
2022/08/01 02:10:31;;;;;;;3.53;1.40;;;20.40;93.30;;;;;;5074680;28;20502;-73
2022/08/01 02:13:01;;;;;;;3.67;1.55;;;20.00;94.10;;;;;;5074517;28;20208;-72
2022/08/01 02:15:31;;;;;;;1.83;1.20;;;19.90;94.20;;;;;;5074776;28;20024;-73
2022/08/01 02:17:59;;;;;;;2.10;1.30;;;19.90;94.20;;;;;;5074770;28;20489;-72
2022/08/01 02:20:28;;;;;;;3.28;1.45;;;19.70;94.80;;;;;;5074413;28;20506;-72
2022/08/01 02:23:00;;;;;;;2.42;1.25;;;19.90;94.20;;;;;;5074524;28;20055;-72
2022/08/01 02:25:32;;;;;;;2.60;1.40;;;20.10;93.80;;;;;;5074436;28;20025;-72
2022/08/01 02:28:05;;;;;;;5.03;1.75;;;19.70;94.70;;;;;;5074306;28;20482;-72
2022/08/01 02:30:35;;;;;;;2.17;1.10;;;19.80;94.30;;;;;;5074671;28;20020;-72
2022/08/01 02:33:09;;;;;;;2.67;1.40;;;19.60;95.30;;;;;;5074183;28;20029;-72
2022/08/01 02:35:38;;;;;;;2.80;1.40;;;19.70;94.70;;;;;;5074079;28;20162;-72
2022/08/01 02:38:06;;;;;;;3.22;1.70;;;19.70;95.10;;;;;;5074315;28;20077;-72
2022/08/01 02:40:36;;;;;;;3.50;1.50;;;19.90;94.30;;;;;;5074320;28;20040;-72
2022/08/01 02:43:05;;;;;;;3.67;1.40;;;19.80;94.70;;;;;;5074022;28;20029;-72
2022/08/01 02:45:32;;;;;;;3.60;1.90;;;19.50;95.20;;;;;;5074183;28;20024;-73
2022/08/01 02:48:05;;;;;;;2.78;1.48;;;19.50;96.00;;;;;;5074026;28;20074;-73
2022/08/01 02:50:33;;;;;;;3.42;1.75;;;19.90;94.20;;;;;;5074072;28;20091;-73
2022/08/01 02:53:00;;;;;;;4.22;1.60;;;19.60;95.20;;;;;;5073887;28;20032;-72
2022/08/01 02:55:26;;;;;;;3.42;1.58;;;19.60;95.20;;;;;;5073592;28;20024;-72
2022/08/01 02:57:54;;;;;;;2.15;1.30;;;19.60;95.10;;;;;;5073832;28;20037;-72
2022/08/01 03:00:21;;;;;;;3.33;1.60;;;19.50;95.20;;;;;;5073780;28;20397;-72
2022/08/01 03:02:48;;;;;;;3.35;1.77;;;19.50;95.10;;;;;;5070429;28;20032;-72
2022/08/01 03:05:14;;;;;;;3.28;1.40;;;19.60;95.20;;;;;;5047019;28;20017;-73
2022/08/01 03:07:41;;;;;;;2.78;1.30;;;19.40;95.30;;;;;;5047167;28;20514;-72
2022/08/01 03:10:09;;;;;;;3.78;1.60;;;19.50;95.20;;;;;;5047260;28;20048;-72
2022/08/01 03:12:37;;;;;;;5.15;1.70;;;19.30;96.00;;;;;;5047784;28;20028;-72
2022/08/01 03:15:05;;;;;;;2.35;1.30;;;19.60;95.20;;;;;;5047699;28;20415;-72
2022/08/01 03:17:33;;;;;;;4.82;1.60;;;19.40;95.30;;;;;;5046286;28;20033;-73
2022/08/01 03:20:02;;;;;;;3.78;1.60;;;19.30;95.70;;;;;;5044523;28;20040;-73
2022/08/01 03:22:29;;;;;;;4.22;1.65;;;19.30;95.50;;;;;;5045485;28;20029;-73
2022/08/01 03:24:57;;;;;;;2.50;1.20;;;19.30;95.80;;;;;;5048254;28;20100;-72
2022/08/01 03:27:24;;;;;;;5.80;1.60;;;19.30;95.40;;;;;;5047814;28;20562;-73
2022/08/01 03:29:51;;;;;;;3.55;1.70;;;19.70;94.80;;;;;;5047423;28;20438;-73
2022/08/01 03:32:19;;;;;;;2.85;1.40;;;19.80;94.70;;;;;;5047901;28;20082;-72
2022/08/01 03:34:45;;;;;;;2.67;1.42;;;19.50;95.40;;;;;;5047852;28;20430;-72
2022/08/01 03:37:34;;;;;;;3.72;1.88;;;19.40;95.40;;;;;;5047697;28;20264;-72
2022/08/01 03:40:30;;;;;;;2.47;1.50;;;19.50;94.90;;;;;;5047746;28;20103;-72
2022/08/01 03:43:05;;;;;;;3.55;1.40;;;19.70;94.70;;;;;;5047835;28;20033;-72
2022/08/01 03:45:39;;;;;;;3.47;1.40;;;19.70;94.50;;;;;;5046974;28;20072;-72
2022/08/01 03:48:13;;;;;;;3.60;1.88;;;19.70;94.60;;;;;;5044478;28;20074;-72
2022/08/01 03:50:42;;;;;;;3.83;1.70;;;19.90;94.00;;;;;;5044731;28;20118;-72
2022/08/01 03:53:09;;;;;;;3.65;1.60;;;19.90;94.40;;;;;;5047708;28;20040;-72
2022/08/01 03:55:37;;;;;;;5.90;1.50;;;19.70;94.50;;;;;;5047517;28;20387;-73
2022/08/01 03:58:05;;;;;;;3.17;1.70;;;19.70;94.90;;;;;;5047557;28;20036;-72
2022/08/01 04:00:31;;;;;;;2.92;1.42;;;19.70;94.70;;;;;;5047508;28;20426;-72
2022/08/01 04:02:58;;;;;;;3.30;1.20;;;19.70;94.60;;;;;;5047565;28;20104;-72
2022/08/01 04:05:25;;;;;;;5.97;1.80;;;19.40;95.30;;;;;;5047610;28;20025;-72
2022/08/01 04:07:59;;;;;;;3.65;1.30;;;19.20;96.00;;;;;;5047544;28;20021;-72
2022/08/01 04:10:25;;;;;;;3.75;2.35;;;19.00;96.20;;;;;;5047714;28;20052;-72
2022/08/01 04:12:51;;;;;;;3.67;1.50;;;19.20;95.70;;;;;;5047793;28;20056;-72
2022/08/01 04:15:17;;;;;;;4.00;1.63;;;19.00;96.10;;;;;;5047245;28;20060;-72
2022/08/01 04:17:43;;;;;;;4.03;1.60;;;19.30;95.50;;;;;;5046985;28;20090;-72
2022/08/01 04:20:11;;;;;;;5.47;1.50;;;19.30;95.40;;;;;;5047298;28;20041;-73
2022/08/01 04:22:37;;;;;;;3.90;1.90;;;19.60;95.10;;;;;;5047514;28;20106;-72
2022/08/01 04:25:08;;;;;;;3.10;1.67;;;19.70;94.90;;;;;;5047274;28;20459;-72
2022/08/01 04:27:38;;;;;;;3.95;1.60;;;19.80;94.70;;;;;;5047581;28;20096;-72
2022/08/01 04:30:06;;;;;;;2.90;1.48;;;19.90;94.60;;;;;;5047050;28;20029;-72
2022/08/01 04:32:37;;;;;;;3.65;2.00;;;20.10;94.20;;;;;;5050872;28;20518;-72
2022/08/01 04:35:06;;;;;;;3.28;1.65;;;20.10;94.10;;;;;;5050978;28;20066;-72
2022/08/01 04:37:36;;;;;;;3.65;1.98;;;20.20;94.00;;;;;;5050989;28;20147;-72
2022/08/01 04:40:05;;;;;;;5.05;1.80;;;20.10;94.30;;;;;;5050772;28;20540;-72
2022/08/01 04:42:31;;;;;;;4.28;1.77;;;20.00;94.60;;;;;;5051107;28;20078;-72
2022/08/01 04:44:58;;;;;;;2.20;1.48;;;19.80;94.60;;;;;;5050861;28;20025;-73
2022/08/01 04:47:24;;;;;;;2.75;1.52;;;19.90;94.60;;;;;;5050728;28;20390;-72
2022/08/01 04:49:50;;;;;;;4.40;1.40;;;19.90;94.40;;;;;;5050678;28;20463;-72
2022/08/01 04:52:17;;;;;;;4.07;1.55;;;20.00;94.50;;;;;;5050990;28;20048;-72
2022/08/01 04:54:43;;;;;;;2.58;1.60;;;20.00;94.40;;;;;;5050497;28;20082;-73
2022/08/01 04:57:09;;;;;;;6.50;1.52;;;20.10;94.30;;;;;;5050869;28;20025;-72
2022/08/01 04:59:41;;;;;;;2.60;1.48;;;20.00;94.50;;;;;;5048128;28;20044;-72
2022/08/01 05:02:16;;;;;;;2.60;1.48;;;20.00;94.40;;;;;;5047756;28;20028;-72
2022/08/01 05:04:43;;;;;;;2.42;1.38;;;20.00;94.60;;;;;;5047564;28;20033;-72
2022/08/01 05:07:09;;;;;;;3.40;1.58;;;20.00;94.40;;;;;;5047605;28;20444;-72
2022/08/01 05:09:36;;;;;;;3.30;1.73;;;19.90;94.50;;;;;;5049149;28;20041;-73
2022/08/01 05:12:04;;;;;;;3.20;1.73;;;20.00;94.40;;;;;;5050260;28;20025;-73
2022/08/01 05:14:32;;;;;;;3.28;1.60;;;20.00;94.60;;;;;;5050523;28;20036;-72
2022/08/01 05:16:59;;;;;;;3.38;1.88;;;19.80;95.00;;;;;;5050669;28;20054;-72
2022/08/01 05:19:26;;;;;;;5.10;1.80;;;19.90;94.90;;;;;;5050493;28;20040;-73
2022/08/01 05:21:52;;;;;;;3.63;1.58;;;19.70;95.10;;;;;;5050542;28;20028;-73
2022/08/01 05:24:18;;;;;;;5.50;1.77;;;19.70;95.50;;;;;;5050401;28;20029;-72
2022/08/01 05:26:43;;;;;;;3.28;1.52;;;19.50;95.40;;;;;;5050249;28;20028;-72
2022/08/01 05:29:09;;;;;;;2.13;1.30;;;19.40;96.00;;;;;;5050119;28;20079;-72
2022/08/01 05:31:34;;;;;;;2.45;1.25;;;19.30;96.30;;;;;;5050220;28;20040;-72
2022/08/01 05:34:03;;;;;;;3.53;1.85;;;19.40;96.10;;;;;;5049783;28;20025;-72
2022/08/01 05:36:29;;;;;;;2.60;1.45;;;19.30;96.10;;;;;;5050338;28;20025;-72
2022/08/01 05:38:55;;;;;;;4.32;1.83;;;19.40;96.20;;;;;;5050034;28;20035;-72
2022/08/01 05:41:21;;;;;;;3.28;1.70;;;19.50;96.20;;;;;;5049618;28;20029;-72
2022/08/01 05:43:46;;;;;;;4.28;1.65;;;19.50;95.80;;;;;;5049872;28;20367;-72
2022/08/01 05:46:12;;;;;;;5.53;1.63;;;19.50;96.50;;;;;;5049728;28;20276;-72
2022/08/01 05:48:38;;;;;;;3.33;1.65;;;19.50;96.30;;;;;;5049959;28;20467;-72
2022/08/01 05:51:04;;;;;;;3.97;1.90;;;19.60;95.90;;;;;;5032110;28;20025;-73
2022/08/01 05:53:30;;;;;;;3.67;1.90;;;20.00;95.10;;;;;;5049754;28;20033;-72
2022/08/01 05:55:56;;;;;;;6.60;1.85;;;19.90;95.90;;;;;;5049500;28;20036;-72
2022/08/01 05:58:22;;;;;;;3.13;1.83;;;19.90;95.40;;;;;;5048905;28;20056;-72
2022/08/01 06:00:47;;;;;;;3.03;2.00;;;20.10;94.50;;;;;;5046578;28;20045;-72
2022/08/01 06:03:14;;;;;;;4.13;1.60;;;20.40;94.00;;;;;;5046989;28;20031;-72
2022/08/01 06:05:40;;;;;;;5.30;2.00;;;20.30;94.70;;;;;;5046158;28;20033;-73
2022/08/01 06:08:05;;;;;;;5.03;1.98;;;20.20;95.80;;;;;;5046330;28;20524;-72
2022/08/01 06:10:31;;;;;;;3.25;1.70;;;20.00;96.20;;;;;;5046091;28;20086;-72
2022/08/01 06:12:57;;;;;;;3.20;1.80;;;20.00;96.30;;;;;;5046218;28;20032;-72
2022/08/01 06:15:22;;;;;;;3.80;2.10;;;20.20;94.40;;;;;;5046009;28;20029;-73
2022/08/01 06:17:48;;;;;;;3.85;1.80;;;20.40;94.30;;;;;;5046442;28;20132;-73
2022/08/01 06:20:14;;;;;;;3.25;1.85;;;20.60;93.70;;;;;;5046448;28;20037;-72
2022/08/01 06:22:39;;;;;;;5.15;1.98;;;20.80;93.60;;;;;;5046033;28;20485;-72
2022/08/01 06:25:06;;;;;;;4.10;1.77;;;20.80;93.40;;;;;;5045687;28;20571;-72
2022/08/01 06:27:35;;;;;;;3.60;1.80;;;20.90;95.10;;;;;;5046089;28;20021;-72
2022/08/01 06:30:00;;;;;;;5.70;1.73;;;20.80;96.00;;;;;;5045880;28;20022;-72
2022/08/01 06:32:26;;;;;;;2.85;1.63;;;20.80;96.00;;;;;;5046112;28;20028;-72
2022/08/01 06:34:53;;;;;;;3.88;1.73;;;20.90;93.70;;;;;;5045387;28;20025;-72
2022/08/01 06:37:18;;;;;;;3.88;1.70;;;21.20;94.20;;;;;;5045429;28;20045;-73
2022/08/01 06:39:44;;;;;;;5.47;1.85;;;21.30;94.70;;;;;;5045848;28;20036;-73
2022/08/01 06:42:10;;;;;;;2.97;2.00;;;21.40;93.20;;;;;;5045668;28;20067;-73
2022/08/01 06:44:35;;;;;;;4.55;1.92;;;21.60;92.00;;;;;;5045348;28;20463;-73
2022/08/01 06:47:01;;;;;;;7.40;2.13;;;21.70;92.70;;;;;;5045836;28;20095;-73
2022/08/01 06:49:27;;;;;;;3.78;2.15;;;21.80;92.20;;;;;;5046343;28;20036;-72
2022/08/01 06:51:53;;;;;;;4.57;2.05;;;22.00;91.70;;;;;;5045164;28;20036;-72
2022/08/01 06:54:19;;;;;;;2.92;1.77;;;22.10;91.50;;;;;;5044752;28;20441;-73
2022/08/01 06:56:45;;;;;;;6.38;2.20;;;22.30;92.00;;;;;;5045258;28;20024;-72
2022/08/01 06:59:10;;;;;;;3.15;1.88;;;22.30;92.60;;;;;;5045666;28;20415;-72
2022/08/01 07:01:36;;;;;;;3.60;2.13;;;22.40;92.10;;;;;;5027577;28;20392;-73
2022/08/01 07:04:02;;;;;;;3.50;1.75;;;22.70;92.30;;;;;;5046355;28;20374;-73
2022/08/01 07:06:28;;;;;;;3.33;1.70;;;22.80;92.00;;;;;;5045030;28;20422;-73
2022/08/01 07:08:54;;;;;;;3.58;2.17;;;23.10;91.20;;;;;;5044848;28;20094;-73
2022/08/01 07:11:21;;;;;;;4.47;1.70;;;23.30;91.30;;;;;;5046844;28;20071;-73
2022/08/01 07:13:47;;;;;;;3.65;1.90;;;23.30;90.70;;;;;;5045092;28;20028;-72
2022/08/01 07:16:13;;;;;;;3.70;1.95;;;23.60;90.90;;;;;;5046374;28;20028;-72
2022/08/01 07:18:39;;;;;;;5.18;1.80;;;23.80;90.20;;;;;;5048362;28;20048;-73
2022/08/01 07:21:05;;;;;;;3.80;2.30;;;24.00;90.60;;;;;;5047851;28;20040;-73
2022/08/01 07:23:30;;;;;;;6.93;2.15;;;24.20;90.30;;;;;;5048185;28;20037;-73
2022/08/01 07:25:56;;;;;;;9.27;2.50;;;25.00;89.30;;;;;;5047732;28;20113;-73
2022/08/01 07:28:21;;;;;;;3.40;2.00;;;26.20;88.60;;;;;;5047674;28;20112;-73
2022/08/01 07:30:47;;;;;;;3.65;2.10;;;27.10;85.50;;;;;;5047801;28;20116;-73
2022/08/01 07:33:13;;;;;;;4.70;1.98;;;28.20;84.30;;;;;;5047392;28;20108;-73
2022/08/01 07:35:41;;;;;;;3.75;2.08;;;29.50;82.60;;;;;;5047328;28;20017;-73
2022/08/01 07:38:07;;;;;;;5.50;1.90;;;30.40;80.80;;;;;;5047582;28;20047;-73
2022/08/01 07:40:33;;;;;;;5.32;2.35;;;30.30;78.60;;;;;;5047480;28;20033;-73
2022/08/01 07:42:58;;;;;;;4.38;2.05;;;29.90;79.70;;;;;;5047632;28;20036;-73
2022/08/01 07:45:24;;;;;;;5.55;2.78;;;30.70;78.80;;;;;;5047028;28;20025;-73
2022/08/01 07:47:50;;;;;;;4.82;2.67;;;31.40;78.00;;;;;;5048023;28;20455;-73
2022/08/01 07:50:16;;;;;;;4.35;2.03;;;31.30;77.80;;;;;;5047450;28;20025;-73
2022/08/01 07:52:42;;;;;;;5.20;2.40;;;31.70;77.40;;;;;;5047220;28;20037;-73
2022/08/01 07:55:09;;;;;;;4.20;1.98;;;31.50;76.40;;;;;;5047165;28;20048;-73
2022/08/01 07:57:35;;;;;;;4.05;2.20;;;31.40;76.10;;;;;;5047515;28;20456;-73
2022/08/01 08:00:03;;;;;;;3.78;2.20;;;31.00;76.50;;;;;;5029299;28;20037;-73
2022/08/01 08:02:28;;;;;;;5.47;2.38;;;30.00;78.10;;;;;;5047649;28;20028;-73
2022/08/01 08:04:54;;;;;;;4.38;2.22;;;27.90;82.50;;;;;;5046873;28;20051;-73
2022/08/01 08:07:20;;;;;;;4.55;2.15;;;26.40;84.90;;;;;;5046945;28;20033;-73
2022/08/01 08:09:45;;;;;;;4.75;2.50;;;25.70;85.30;;;;;;5046738;28;20546;-73
2022/08/01 08:12:11;;;;;;;2.92;1.85;;;25.30;87.60;;;;;;5047216;28;20095;-73
2022/08/01 08:14:38;;;;;;;4.22;2.30;;;25.30;87.60;;;;;;5047198;28;20044;-73
2022/08/01 08:17:25;;;;;;;3.63;2.30;;;25.80;86.40;;;;;;5047090;28;20032;-73
2022/08/01 08:19:50;;;;;;;3.35;2.00;;;27.80;81.70;;;;;;5046441;28;20123;-73
2022/08/01 08:22:16;;;;;;;5.43;2.65;;;28.20;80.80;;;;;;5047250;28;20558;-73
2022/08/01 08:24:42;;;;;;;3.78;2.20;;;28.70;81.00;;;;;;5047403;28;20509;-73
2022/08/01 08:27:07;;;;;;;3.72;2.38;;;29.10;80.30;;;;;;5047660;28;20462;-73
2022/08/01 08:29:33;;;;;;;5.45;2.10;;;29.30;80.00;;;;;;5047781;28;20051;-73
2022/08/01 08:32:00;;;;;;;4.07;2.50;;;28.80;80.20;;;;;;5047290;28;20043;-73
2022/08/01 08:34:27;;;;;;;3.63;2.13;;;28.60;81.40;;;;;;5047355;28;20025;-73
2022/08/01 08:36:55;;;;;;;4.32;2.20;;;28.20;81.10;;;;;;5047119;28;20467;-73
2022/08/01 08:39:21;;;;;;;4.95;2.10;;;27.60;82.50;;;;;;5047064;28;20108;-73
2022/08/01 08:41:47;;;;;;;3.38;1.80;;;27.60;83.40;;;;;;5046956;28;20113;-73
2022/08/01 08:44:14;;;;;;;4.60;2.13;;;27.20;84.40;;;;;;5047181;28;20025;-73
2022/08/01 08:46:45;;;;;;;4.22;2.40;;;27.10;83.60;;;;;;5046821;28;20025;-73
2022/08/01 08:49:15;;;;;;;3.75;2.08;;;26.90;84.60;;;;;;5046996;28;20035;-73
2022/08/01 08:51:43;;;;;;;3.38;2.20;;;27.20;85.90;;;;;;5046850;28;20584;-73
2022/08/01 08:54:12;;;;;;;3.90;2.15;;;26.90;83.10;;;;;;5046723;28;20058;-73
2022/08/01 08:56:39;;;;;;;2.95;2.00;;;26.70;84.50;;;;;;5046547;28;20502;-73
2022/08/01 08:59:05;;;;;;;5.72;2.30;;;26.90;85.60;;;;;;5046269;28;20425;-73
2022/08/01 09:01:35;;;;;;;4.65;2.40;;;27.10;84.00;;;;;;5046578;28;20096;-73
2022/08/01 09:04:04;;;;;;;3.80;2.45;;;26.90;84.50;;;;;;5046834;28;20345;-73
2022/08/01 09:06:31;;;;;;;5.70;2.28;;;27.10;84.20;;;;;;5046614;28;20044;-71
2022/08/01 09:08:58;;;;;;;3.30;1.95;;;27.10;81.40;;;;;;5046736;28;20158;-73
2022/08/01 09:11:24;;;;;;;4.25;2.45;;;27.00;82.60;;;;;;5046527;28;20191;-73
2022/08/01 09:14:06;;;;;;;7.00;1.83;;;27.00;83.20;;;;;;5046632;28;20225;-73
2022/08/01 09:16:33;;;;;;;4.85;2.13;;;27.40;83.50;;;;;;5047354;28;20108;-73
2022/08/01 09:19:19;;;;;;;4.03;2.20;;;27.50;84.10;;;;;;5049998;28;20032;-73
2022/08/01 09:21:59;;;;;;;3.65;2.15;;;27.20;83.20;;;;;;5049946;28;20116;-73
2022/08/01 09:24:26;;;;;;;5.55;2.25;;;27.50;82.30;;;;;;5050123;28;20025;-73
2022/08/01 09:26:53;;;;;;;4.75;1.77;;;27.10;82.30;;;;;;5050049;28;20033;-74
2022/08/01 09:29:24;;;;;;;7.45;2.38;;;27.00;82.60;;;;;;5050158;28;20036;-73
2022/08/01 09:31:51;;;;;;;3.13;2.25;;;27.50;82.60;;;;;;5050150;28;20040;-73
2022/08/01 09:34:28;;;;;;;3.63;2.08;;;27.80;83.70;;;;;;5050298;28;20063;-73
2022/08/01 09:37:01;;;;;;;3.95;2.10;;;27.90;84.00;;;;;;5050813;28;20029;-72
2022/08/01 09:39:31;;;;;;;;;;;28.00;83.60;;;;;;5051000;28;20028;-70
2022/08/01 09:41:59;;;;;;;3.33;2.03;;;27.90;81.80;;;;;;5049866;28;19912;-71
2022/08/01 09:44:42;;;;;;;5.00;2.50;;;27.90;83.30;;;;;;5049762;28;20029;-71
2022/08/01 09:47:08;;;;;;;3.00;2.10;;;27.90;83.40;;;;;;5050163;28;20468;-71
2022/08/01 09:49:35;;;;;;;4.55;2.17;;;28.10;82.60;;;;;;5049990;28;20047;-71
2022/08/01 09:52:10;;;;;;;4.68;2.00;;;28.00;82.00;;;;;;5049573;28;20060;-73
2022/08/01 09:54:36;;;;;;;4.75;2.20;;;28.60;83.30;;;;;;5049540;28;20032;-71
2022/08/01 09:57:16;;;;;;;3.10;1.98;;;28.60;83.50;;;;;;5049737;28;20040;-71
2022/08/01 09:59:44;;;;;;;5.60;2.08;;;28.80;82.40;;;;;;5049803;28;20036;-71
2022/08/01 10:02:15;;;;;;;4.07;1.63;;;28.70;83.10;;;;;;5049685;28;20429;-71
2022/08/01 10:04:51;;;;;;;6.15;1.92;;;28.80;80.30;;;;;;5049803;28;20090;-72
2022/08/01 10:07:18;;;;;;;5.15;2.00;;;28.90;80.20;;;;;;5049387;28;20037;-71
2022/08/01 10:09:44;;;;;;;5.47;1.77;;;29.10;82.30;;;;;;5048801;28;20498;-71
2022/08/01 10:12:12;;;;;;;5.13;2.25;;;29.30;82.10;;;;;;5049569;28;20017;-71
2022/08/01 10:14:51;;;;;;;;;;;;;;;;;;;;;
2022/08/01 10:17:19;;;;;;;3.65;2.08;;;29.40;80.90;;;;;;5049469;28;20055;-71
2022/08/01 10:19:46;;;;;;;4.20;2.08;;;29.00;80.00;;;;;;5048966;28;20433;-71
2022/08/01 10:22:16;;;;;;;4.93;1.95;;;29.20;81.40;;;;;;5049273;28;20059;-71
2022/08/01 10:24:47;;;;;;;2.78;1.55;;;29.40;80.70;;;;;;5049294;28;20033;-71
2022/08/01 10:27:15;;;;;;;3.55;1.95;;;29.50;77.60;;;;;;5049431;28;20021;-71
2022/08/01 10:29:57;;;;;;;5.63;1.70;;;29.60;78.10;;;;;;5049110;28;20463;-71
2022/08/01 10:32:23;;;;;;;3.42;2.35;;;29.60;79.50;;;;;;5049193;28;20029;-71
2022/08/01 10:34:50;;;;;;;3.13;1.70;;;29.50;78.50;;;;;;5048711;28;20537;-71
2022/08/01 10:37:17;;;;;;;2.60;1.60;;;29.30;77.60;;;;;;5049339;28;20054;-71
2022/08/01 10:39:43;;;;;;;3.10;1.70;;;29.40;79.00;;;;;;5048787;28;20128;-71
2022/08/01 10:42:10;;;;;;;4.60;1.73;;;29.90;78.70;;;;;;5049034;28;20043;-71
2022/08/01 10:44:37;;;;;;;3.15;1.70;;;29.90;77.50;;;;;;5049072;28;20029;-71
2022/08/01 10:47:13;;;;;;;4.13;1.90;;;30.00;79.10;;;;;;5048745;28;20033;-71
2022/08/01 10:50:02;;;;;;;2.88;1.70;;;30.20;79.40;;;;;;5048934;28;20116;-71
2022/08/01 10:52:27;;;;;;;4.57;2.17;;;30.50;79.50;;;;;;5048981;28;20029;-71
2022/08/01 10:55:13;;;;;;;5.13;2.17;;;30.50;77.30;;;;;;5048618;28;20475;-71
2022/08/01 10:57:46;;;;;;;3.33;1.73;;;30.30;79.00;;;;;;5048156;28;20041;-71
2022/08/01 11:00:22;;;;;;;7.18;2.08;;;30.50;77.90;;;;;;5048542;28;20029;-71
2022/08/01 11:03:03;;;;;;;3.55;1.73;;;30.60;79.20;;;;;;5048549;28;20032;-71
2022/08/01 11:05:34;;;;;;;4.13;1.60;;;30.70;77.90;;;;;;5048291;28;20283;-71
2022/08/01 11:08:09;;;;;;;5.97;1.70;;;31.00;79.50;;;;;;5047900;28;20392;-71
2022/08/01 11:10:38;;;;;;;3.10;1.60;;;30.70;77.40;;;;;;5047776;28;20103;-71
2022/08/01 11:13:07;;;;;;;3.53;2.03;;;30.70;76.60;;;;;;5048610;28;20024;-71
2022/08/01 11:15:37;;;;;;;3.95;1.70;;;30.80;81.00;;;;;;5048140;28;20051;-71
2022/08/01 11:18:23;;;;;;;3.45;1.83;;;31.00;77.70;;;;;;5048218;28;20053;-71
2022/08/01 11:20:57;;;;;;;2.42;1.35;;;31.00;76.80;;;;;;5047982;28;20151;-71
2022/08/01 11:23:23;;;;;;;3.05;1.67;;;31.30;76.00;;;;;;5048383;28;20033;-71
2022/08/01 11:25:49;;;;;;;3.80;1.33;;;31.30;75.70;;;;;;5048085;28;20479;-71
2022/08/01 11:28:17;;;;;;;2.05;1.23;;;31.20;74.60;;;;;;5047968;28;20132;-71
2022/08/01 11:30:43;;;;;;;3.15;1.67;;;31.40;74.10;;;;;;5047688;28;20064;-71
2022/08/01 11:33:09;;;;;;;5.40;1.33;;;31.60;72.70;;;;;;5047824;28;20545;-71
2022/08/01 11:35:36;;;;;;;3.00;1.40;;;31.80;72.60;;;;;;5048061;28;20029;-71
2022/08/01 11:38:28;;;;;;;2.38;1.48;;;31.90;73.20;;;;;;5047778;28;20115;-71
2022/08/01 11:41:23;;;;;;;5.47;1.50;;;32.10;74.00;;;;;;5047327;28;20025;-71
2022/08/01 11:43:59;;;;;;;3.03;1.77;;;31.60;74.30;;;;;;5047611;28;20029;-71
2022/08/01 11:46:51;;;;;;;5.55;2.35;;;31.70;75.80;;;;;;5047942;28;20025;-71
2022/08/01 11:49:34;;;;;;;3.33;1.55;;;32.00;78.30;;;;;;5047760;28;20446;-71
2022/08/01 11:52:13;;;;;;;3.78;1.65;;;31.90;73.80;;;;;;5047615;28;20504;-72
2022/08/01 11:54:47;;;;;;;4.60;1.50;;;31.80;74.90;;;;;;5048101;28;20029;-72
2022/08/01 11:57:20;;;;;;;2.72;1.52;;;32.10;78.10;;;;;;5048123;28;20041;-71
2022/08/01 11:59:51;;;;;;;2.93;1.50;;;32.30;75.40;;;;;;5048150;28;20029;-71
2022/08/01 12:02:18;;;;;;;4.95;1.40;;;32.30;78.60;;;;;;5047563;28;20065;-71
2022/08/01 12:04:48;;;;;;;5.38;2.00;;;32.30;75.60;;;;;;5047467;28;20511;-71
2022/08/01 12:07:15;;;;;;;2.17;1.30;;;31.80;74.10;;;;;;5047607;28;20029;-71
2022/08/01 12:09:41;;;;;;;4.72;1.40;;;31.90;75.30;;;;;;5047299;28;20326;-71
2022/08/01 12:12:07;;;;;;;2.45;1.38;;;32.10;73.90;;;;;;5047458;28;20033;-71
2022/08/01 12:14:33;;;;;;;2.75;1.40;;;32.10;75.60;;;;;;5047197;28;20025;-71
2022/08/01 12:16:58;;;;;;;2.63;1.38;;;32.50;78.80;;;;;;5047118;28;20021;-71
2022/08/01 12:19:24;;;;;;;4.78;1.38;;;32.80;79.00;;;;;;5047111;28;20376;-71
2022/08/01 12:22:11;;;;;;;4.28;1.40;;;32.70;78.10;;;;;;5047607;28;20104;-71
2022/08/01 12:24:39;;;;;;;3.42;1.42;;;32.90;77.40;;;;;;5047240;28;20382;-71
2022/08/01 12:27:06;;;;;;;3.10;1.35;;;33.00;76.90;;;;;;5047173;28;20061;-71
2022/08/01 12:29:38;;;;;;;2.92;1.50;;;32.90;75.10;;;;;;5047428;28;20047;-71
2022/08/01 12:32:04;;;;;;;5.35;1.60;;;32.90;77.20;;;;;;5047197;28;20036;-71
2022/08/01 12:34:30;;;;;;;2.95;1.02;;;33.00;76.10;;;;;;5047034;28;20029;-71
2022/08/01 12:36:58;;;;;;;2.00;1.45;;;32.60;76.30;;;;;;5047218;28;20025;-71
2022/08/01 12:39:32;;;;;;;2.60;1.30;;;32.60;74.90;;;;;;5047685;28;20036;-71
2022/08/01 12:41:58;;;;;;;4.05;1.33;;;32.70;76.80;;;;;;5047180;28;20021;-71
2022/08/01 12:44:26;;;;;;;3.35;1.45;;;33.00;76.60;;;;;;5047279;28;20500;-71
2022/08/01 12:46:52;;;;;;;2.75;1.20;;;33.40;77.10;;;;;;5047421;28;20100;-71
2022/08/01 12:49:18;;;;;;;3.42;1.27;;;33.40;72.90;;;;;;5047917;28;20075;-72
2022/08/01 12:51:44;;;;;;;3.40;1.15;;;33.40;75.60;;;;;;5048617;28;20037;-71
2022/08/01 12:54:10;;;;;;;3.00;1.20;;;33.30;74.90;;;;;;5050953;28;20029;-73
2022/08/01 12:56:36;;;;;;;3.22;1.27;;;33.30;71.70;;;;;;5050863;28;20430;-73